sensor_id;sensor_type;location;lat;lon;timestamp;pressure;altitude;pressure_sealevel;temperature;humidity
57644;BME280;43474;46.510;6.686;2024-01-30T00:02:14;97855.03;;;1.93;100.00
57644;BME280;43474;46.510;6.686;2024-01-30T00:04:40;97881.44;;;2.00;100.00
57644;BME280;43474;46.510;6.686;2024-01-30T00:07:06;97940.28;;;2.31;100.00
57644;BME280;43474;46.510;6.686;2024-01-30T00:09:32;97904.09;;;2.09;100.00
57644;BME280;43474;46.510;6.686;2024-01-30T00:11:57;97922.41;;;2.09;100.00
57644;BME280;43474;46.510;6.686;2024-01-30T00:14:23;97901.16;;;1.94;100.00
57644;BME280;43474;46.510;6.686;2024-01-30T00:16:50;97915.94;;;2.03;100.00
57644;BME280;43474;46.510;6.686;2024-01-30T00:19:17;97901.03;;;1.86;100.00
57644;BME280;43474;46.510;6.686;2024-01-30T00:21:43;97944.56;;;2.05;100.00
57644;BME280;43474;46.510;6.686;2024-01-30T00:24:09;97943.09;;;1.93;100.00
57644;BME280;43474;46.510;6.686;2024-01-30T00:26:35;97905.91;;;1.71;100.00
57644;BME280;43474;46.510;6.686;2024-01-30T00:29:00;97918.56;;;1.76;100.00
57644;BME280;43474;46.510;6.686;2024-01-30T00:31:26;97872.56;;;1.55;100.00
57644;BME280;43474;46.510;6.686;2024-01-30T00:33:52;97903.31;;;1.71;100.00
57644;BME280;43474;46.510;6.686;2024-01-30T00:36:18;97923.03;;;1.84;100.00
57644;BME280;43474;46.510;6.686;2024-01-30T00:38:44;97912.63;;;1.74;100.00
57644;BME280;43474;46.510;6.686;2024-01-30T00:41:09;97929.16;;;1.74;100.00
57644;BME280;43474;46.510;6.686;2024-01-30T00:43:36;97914.59;;;1.72;100.00
57644;BME280;43474;46.510;6.686;2024-01-30T00:46:01;97966.47;;;2.04;100.00
57644;BME280;43474;46.510;6.686;2024-01-30T00:48:27;97946.66;;;2.01;100.00
57644;BME280;43474;46.510;6.686;2024-01-30T00:50:53;97907.69;;;1.80;100.00
57644;BME280;43474;46.510;6.686;2024-01-30T00:53:19;97908.09;;;1.76;100.00
57644;BME280;43474;46.510;6.686;2024-01-30T00:55:44;97891.91;;;1.63;100.00
57644;BME280;43474;46.510;6.686;2024-01-30T00:58:10;97909.97;;;1.84;100.00
57644;BME280;43474;46.510;6.686;2024-01-30T01:00:36;97889.47;;;1.61;100.00
57644;BME280;43474;46.510;6.686;2024-01-30T01:03:02;97910.59;;;1.68;100.00
57644;BME280;43474;46.510;6.686;2024-01-30T01:05:29;97894.56;;;1.53;100.00
57644;BME280;43474;46.510;6.686;2024-01-30T01:07:55;97881.22;;;1.56;100.00
57644;BME280;43474;46.510;6.686;2024-01-30T01:10:21;97880.66;;;1.62;100.00
57644;BME280;43474;46.510;6.686;2024-01-30T01:12:47;97876.81;;;1.57;100.00
57644;BME280;43474;46.510;6.686;2024-01-30T01:15:13;97895.06;;;1.66;100.00
57644;BME280;43474;46.510;6.686;2024-01-30T01:17:39;97938.31;;;1.88;100.00
57644;BME280;43474;46.510;6.686;2024-01-30T01:20:06;97906.78;;;1.62;100.00
57644;BME280;43474;46.510;6.686;2024-01-30T01:22:32;97892.38;;;1.48;100.00
57644;BME280;43474;46.510;6.686;2024-01-30T01:24:59;97948.09;;;1.86;100.00
57644;BME280;43474;46.510;6.686;2024-01-30T01:27:26;97910.09;;;1.64;100.00
57644;BME280;43474;46.510;6.686;2024-01-30T01:29:52;97930.22;;;1.81;100.00
57644;BME280;43474;46.510;6.686;2024-01-30T01:32:18;97946.13;;;1.88;100.00
57644;BME280;43474;46.510;6.686;2024-01-30T01:34:44;97951.53;;;1.87;100.00
57644;BME280;43474;46.510;6.686;2024-01-30T01:37:10;97939.06;;;1.71;100.00
57644;BME280;43474;46.510;6.686;2024-01-30T01:39:38;97892.28;;;1.40;100.00
57644;BME280;43474;46.510;6.686;2024-01-30T01:42:04;97943.75;;;1.67;100.00
57644;BME280;43474;46.510;6.686;2024-01-30T01:44:30;97889.56;;;1.32;100.00
57644;BME280;43474;46.510;6.686;2024-01-30T01:46:56;97907.91;;;1.60;100.00
57644;BME280;43474;46.510;6.686;2024-01-30T01:49:27;97897.44;;;1.60;100.00
57644;BME280;43474;46.510;6.686;2024-01-30T01:51:54;97937.41;;;1.79;100.00
57644;BME280;43474;46.510;6.686;2024-01-30T01:54:22;97946.19;;;1.78;100.00
57644;BME280;43474;46.510;6.686;2024-01-30T01:56:49;97938.25;;;1.70;100.00
57644;BME280;43474;46.510;6.686;2024-01-30T01:59:18;97905.84;;;1.53;100.00
57644;BME280;43474;46.510;6.686;2024-01-30T02:01:44;97897.34;;;1.51;100.00
57644;BME280;43474;46.510;6.686;2024-01-30T02:04:11;97928.47;;;1.72;100.00
57644;BME280;43474;46.510;6.686;2024-01-30T02:06:38;97908.69;;;1.70;100.00
57644;BME280;43474;46.510;6.686;2024-01-30T02:09:04;97899.38;;;1.58;100.00
57644;BME280;43474;46.510;6.686;2024-01-30T02:11:30;97894.28;;;1.56;100.00
57644;BME280;43474;46.510;6.686;2024-01-30T02:13:56;97887.84;;;1.50;100.00
57644;BME280;43474;46.510;6.686;2024-01-30T02:16:22;97867.13;;;1.39;100.00
57644;BME280;43474;46.510;6.686;2024-01-30T02:18:47;97921.31;;;1.74;100.00
57644;BME280;43474;46.510;6.686;2024-01-30T02:21:18;97884.00;;;1.54;100.00
57644;BME280;43474;46.510;6.686;2024-01-30T02:23:46;97868.38;;;1.35;100.00
57644;BME280;43474;46.510;6.686;2024-01-30T02:26:12;97905.41;;;1.58;100.00
57644;BME280;43474;46.510;6.686;2024-01-30T02:28:38;97935.72;;;1.78;100.00
57644;BME280;43474;46.510;6.686;2024-01-30T02:31:04;97886.59;;;1.54;100.00
57644;BME280;43474;46.510;6.686;2024-01-30T02:33:30;97912.13;;;1.70;100.00
57644;BME280;43474;46.510;6.686;2024-01-30T02:35:56;97907.47;;;1.64;100.00
57644;BME280;43474;46.510;6.686;2024-01-30T02:38:22;97921.75;;;1.70;100.00
57644;BME280;43474;46.510;6.686;2024-01-30T02:40:49;97905.97;;;1.62;100.00
57644;BME280;43474;46.510;6.686;2024-01-30T02:43:16;97924.06;;;1.73;100.00
57644;BME280;43474;46.510;6.686;2024-01-30T02:45:42;97885.81;;;1.44;100.00
57644;BME280;43474;46.510;6.686;2024-01-30T02:48:08;97936.03;;;1.75;100.00
57644;BME280;43474;46.510;6.686;2024-01-30T02:50:34;97939.44;;;1.86;100.00
57644;BME280;43474;46.510;6.686;2024-01-30T02:53:00;97875.06;;;1.47;100.00
57644;BME280;43474;46.510;6.686;2024-01-30T02:55:26;97882.72;;;1.59;100.00
57644;BME280;43474;46.510;6.686;2024-01-30T02:57:51;97889.84;;;1.66;100.00
57644;BME280;43474;46.510;6.686;2024-01-30T03:00:19;97937.63;;;1.86;100.00
57644;BME280;43474;46.510;6.686;2024-01-30T03:02:45;97896.75;;;1.58;100.00
57644;BME280;43474;46.510;6.686;2024-01-30T03:05:11;97884.66;;;1.57;100.00
57644;BME280;43474;46.510;6.686;2024-01-30T03:07:36;97856.00;;;1.37;100.00
57644;BME280;43474;46.510;6.686;2024-01-30T03:10:04;97858.47;;;1.39;100.00
57644;BME280;43474;46.510;6.686;2024-01-30T03:12:30;97885.75;;;1.54;100.00
57644;BME280;43474;46.510;6.686;2024-01-30T03:14:55;97895.22;;;1.65;100.00
57644;BME280;43474;46.510;6.686;2024-01-30T03:17:21;97886.22;;;1.49;100.00
57644;BME280;43474;46.510;6.686;2024-01-30T03:19:47;97898.34;;;1.68;100.00
57644;BME280;43474;46.510;6.686;2024-01-30T03:22:13;97897.84;;;1.65;100.00
57644;BME280;43474;46.510;6.686;2024-01-30T03:24:38;97934.25;;;1.76;100.00
57644;BME280;43474;46.510;6.686;2024-01-30T03:27:04;97895.34;;;1.63;100.00
57644;BME280;43474;46.510;6.686;2024-01-30T03:29:30;97878.81;;;1.45;100.00
57644;BME280;43474;46.510;6.686;2024-01-30T03:31:55;97899.94;;;1.51;100.00
57644;BME280;43474;46.510;6.686;2024-01-30T03:34:21;97907.19;;;1.58;100.00
57644;BME280;43474;46.510;6.686;2024-01-30T03:36:47;97893.09;;;1.50;100.00
57644;BME280;43474;46.510;6.686;2024-01-30T03:39:12;97883.16;;;1.54;100.00
57644;BME280;43474;46.510;6.686;2024-01-30T03:41:42;97891.91;;;1.63;100.00
57644;BME280;43474;46.510;6.686;2024-01-30T03:44:08;97850.06;;;1.45;100.00
57644;BME280;43474;46.510;6.686;2024-01-30T03:46:34;97853.31;;;1.57;100.00
57644;BME280;43474;46.510;6.686;2024-01-30T03:49:00;97896.94;;;1.74;100.00
57644;BME280;43474;46.510;6.686;2024-01-30T03:51:26;97858.00;;;1.53;100.00
57644;BME280;43474;46.510;6.686;2024-01-30T03:53:52;97835.38;;;1.34;100.00
57644;BME280;43474;46.510;6.686;2024-01-30T03:56:17;97904.63;;;1.85;100.00
57644;BME280;43474;46.510;6.686;2024-01-30T03:58:43;97859.69;;;1.44;100.00
57644;BME280;43474;46.510;6.686;2024-01-30T04:01:13;97834.91;;;1.21;100.00
57644;BME280;43474;46.510;6.686;2024-01-30T04:03:39;97837.34;;;1.22;100.00
57644;BME280;43474;46.510;6.686;2024-01-30T04:06:05;97869.03;;;1.47;100.00
57644;BME280;43474;46.510;6.686;2024-01-30T04:08:31;97854.63;;;1.33;100.00
57644;BME280;43474;46.510;6.686;2024-01-30T04:10:56;97842.81;;;1.29;100.00
57644;BME280;43474;46.510;6.686;2024-01-30T04:13:22;97894.13;;;1.58;100.00
57644;BME280;43474;46.510;6.686;2024-01-30T04:15:48;97854.06;;;1.39;100.00
57644;BME280;43474;46.510;6.686;2024-01-30T04:18:14;97877.25;;;1.52;100.00
57644;BME280;43474;46.510;6.686;2024-01-30T04:20:39;97881.13;;;1.48;100.00
57644;BME280;43474;46.510;6.686;2024-01-30T04:23:05;97877.44;;;1.41;100.00
57644;BME280;43474;46.510;6.686;2024-01-30T04:25:31;97858.50;;;1.29;100.00
57644;BME280;43474;46.510;6.686;2024-01-30T04:27:57;97866.59;;;1.36;100.00
57644;BME280;43474;46.510;6.686;2024-01-30T04:30:22;97915.44;;;1.63;100.00
57644;BME280;43474;46.510;6.686;2024-01-30T04:32:48;97925.63;;;1.66;100.00
57644;BME280;43474;46.510;6.686;2024-01-30T04:35:14;97934.38;;;1.74;100.00
57644;BME280;43474;46.510;6.686;2024-01-30T04:37:40;97865.34;;;1.40;100.00
57644;BME280;43474;46.510;6.686;2024-01-30T04:40:06;97872.34;;;1.39;100.00
57644;BME280;43474;46.510;6.686;2024-01-30T04:42:32;97869.19;;;1.45;100.00
57644;BME280;43474;46.510;6.686;2024-01-30T04:44:58;97872.47;;;1.47;100.00
57644;BME280;43474;46.510;6.686;2024-01-30T04:47:24;97864.50;;;1.39;100.00
57644;BME280;43474;46.510;6.686;2024-01-30T04:49:51;97938.88;;;1.82;100.00
57644;BME280;43474;46.510;6.686;2024-01-30T04:52:17;97870.28;;;1.43;100.00
57644;BME280;43474;46.510;6.686;2024-01-30T04:54:42;97889.47;;;1.61;100.00
57644;BME280;43474;46.510;6.686;2024-01-30T04:57:09;97876.72;;;1.48;100.00
57644;BME280;43474;46.510;6.686;2024-01-30T04:59:37;97895.34;;;1.63;100.00
57644;BME280;43474;46.510;6.686;2024-01-30T05:02:03;97897.53;;;1.68;100.00
57644;BME280;43474;46.510;6.686;2024-01-30T05:04:29;97882.91;;;1.47;100.00
57644;BME280;43474;46.510;6.686;2024-01-30T05:06:55;97877.56;;;1.39;100.00
57644;BME280;43474;46.510;6.686;2024-01-30T05:09:21;97867.03;;;1.31;100.00
57644;BME280;43474;46.510;6.686;2024-01-30T05:11:47;97871.81;;;1.36;100.00
57644;BME280;43474;46.510;6.686;2024-01-30T05:14:12;97888.56;;;1.43;100.00
57644;BME280;43474;46.510;6.686;2024-01-30T05:16:40;97877.72;;;1.38;100.00
57644;BME280;43474;46.510;6.686;2024-01-30T05:19:06;97879.66;;;1.36;100.00
57644;BME280;43474;46.510;6.686;2024-01-30T05:21:32;97915.03;;;1.58;100.00
57644;BME280;43474;46.510;6.686;2024-01-30T05:23:59;97895.19;;;1.37;100.00
57644;BME280;43474;46.510;6.686;2024-01-30T05:26:25;97874.88;;;1.21;100.00
57644;BME280;43474;46.510;6.686;2024-01-30T05:28:51;97902.38;;;1.25;100.00
57644;BME280;43474;46.510;6.686;2024-01-30T05:31:17;97893.19;;;1.12;100.00
57644;BME280;43474;46.510;6.686;2024-01-30T05:33:43;97914.88;;;1.22;100.00
57644;BME280;43474;46.510;6.686;2024-01-30T05:36:12;97886.44;;;1.09;100.00
57644;BME280;43474;46.510;6.686;2024-01-30T05:38:38;97971.69;;;1.57;100.00
57644;BME280;43474;46.510;6.686;2024-01-30T05:41:04;97911.59;;;1.20;100.00
57644;BME280;43474;46.510;6.686;2024-01-30T05:43:29;97901.28;;;1.09;100.00
57644;BME280;43474;46.510;6.686;2024-01-30T05:45:55;97900.34;;;1.10;100.00
57644;BME280;43474;46.510;6.686;2024-01-30T05:48:21;97923.53;;;1.22;100.00
57644;BME280;43474;46.510;6.686;2024-01-30T05:50:47;97901.44;;;1.07;100.00
57644;BME280;43474;46.510;6.686;2024-01-30T05:53:12;97906.91;;;1.04;100.00
57644;BME280;43474;46.510;6.686;2024-01-30T05:55:38;97974.72;;;1.52;100.00
57644;BME280;43474;46.510;6.686;2024-01-30T05:58:04;97900.75;;;1.05;100.00
57644;BME280;43474;46.510;6.686;2024-01-30T06:00:30;97919.00;;;1.24;100.00
57644;BME280;43474;46.510;6.686;2024-01-30T06:02:56;97902.50;;;1.14;100.00
57644;BME280;43474;46.510;6.686;2024-01-30T06:05:22;97943.84;;;1.28;100.00
57644;BME280;43474;46.510;6.686;2024-01-30T06:07:47;97936.56;;;1.22;100.00
57644;BME280;43474;46.510;6.686;2024-01-30T06:10:13;97924.91;;;1.17;100.00
57644;BME280;43474;46.510;6.686;2024-01-30T06:12:39;97920.38;;;1.09;100.00
57644;BME280;43474;46.510;6.686;2024-01-30T06:15:06;97923.53;;;1.13;100.00
57644;BME280;43474;46.510;6.686;2024-01-30T06:17:32;97911.31;;;1.13;100.00
57644;BME280;43474;46.510;6.686;2024-01-30T06:19:58;97984.34;;;1.62;100.00
57644;BME280;43474;46.510;6.686;2024-01-30T06:22:24;97917.63;;;1.20;100.00
57644;BME280;43474;46.510;6.686;2024-01-30T06:24:49;97928.31;;;1.27;100.00
57644;BME280;43474;46.510;6.686;2024-01-30T06:27:15;97929.16;;;1.27;100.00
57644;BME280;43474;46.510;6.686;2024-01-30T06:29:43;97932.56;;;1.28;100.00
57644;BME280;43474;46.510;6.686;2024-01-30T06:32:09;97917.09;;;1.17;100.00
57644;BME280;43474;46.510;6.686;2024-01-30T06:34:35;97972.53;;;1.48;100.00
57644;BME280;43474;46.510;6.686;2024-01-30T06:37:01;97933.69;;;1.25;100.00
57644;BME280;43474;46.510;6.686;2024-01-30T06:39:27;97980.50;;;1.56;100.00
57644;BME280;43474;46.510;6.686;2024-01-30T06:41:53;97936.00;;;1.28;100.00
57644;BME280;43474;46.510;6.686;2024-01-30T06:44:19;97960.06;;;1.42;100.00
57644;BME280;43474;46.510;6.686;2024-01-30T06:46:44;97930.28;;;1.25;100.00
57644;BME280;43474;46.510;6.686;2024-01-30T06:49:12;97958.69;;;1.38;100.00
57644;BME280;43474;46.510;6.686;2024-01-30T06:51:38;97930.69;;;1.20;100.00
57644;BME280;43474;46.510;6.686;2024-01-30T06:54:06;97943.59;;;1.22;100.00
57644;BME280;43474;46.510;6.686;2024-01-30T06:56:31;97940.56;;;1.17;100.00
57644;BME280;43474;46.510;6.686;2024-01-30T06:58:57;98012.66;;;1.66;100.00
57644;BME280;43474;46.510;6.686;2024-01-30T07:01:28;97945.22;;;1.33;100.00
57644;BME280;43474;46.510;6.686;2024-01-30T07:03:55;98004.09;;;1.74;100.00
57644;BME280;43474;46.510;6.686;2024-01-30T07:06:21;97953.19;;;1.41;100.00
57644;BME280;43474;46.510;6.686;2024-01-30T07:08:49;97989.16;;;1.66;100.00
57644;BME280;43474;46.510;6.686;2024-01-30T07:11:21;98032.53;;;1.96;100.00
57644;BME280;43474;46.510;6.686;2024-01-30T07:13:48;98028.16;;;1.87;100.00
57644;BME280;43474;46.510;6.686;2024-01-30T07:16:14;98006.63;;;1.66;100.00
57644;BME280;43474;46.510;6.686;2024-01-30T07:18:40;98024.28;;;1.91;100.00
57644;BME280;43474;46.510;6.686;2024-01-30T07:21:06;98008.75;;;1.90;100.00
57644;BME280;43474;46.510;6.686;2024-01-30T07:23:32;97970.56;;;1.69;100.00
57644;BME280;43474;46.510;6.686;2024-01-30T07:25:59;97995.28;;;1.85;100.00
57644;BME280;43474;46.510;6.686;2024-01-30T07:28:25;98034.78;;;2.19;100.00
57644;BME280;43474;46.510;6.686;2024-01-30T07:30:50;97992.16;;;2.08;100.00
57644;BME280;43474;46.510;6.686;2024-01-30T07:33:16;98041.41;;;2.50;100.00
57644;BME280;43474;46.510;6.686;2024-01-30T07:35:42;98033.16;;;2.45;100.00
57644;BME280;43474;46.510;6.686;2024-01-30T07:38:08;98011.16;;;2.38;100.00
57644;BME280;43474;46.510;6.686;2024-01-30T07:40:33;97994.25;;;2.32;100.00
57644;BME280;43474;46.510;6.686;2024-01-30T07:42:59;98039.06;;;2.75;100.00
57644;BME280;43474;46.510;6.686;2024-01-30T07:45:26;98009.78;;;2.62;100.00
57644;BME280;43474;46.510;6.686;2024-01-30T07:47:53;98015.13;;;2.88;100.00
57644;BME280;43474;46.510;6.686;2024-01-30T07:50:18;98003.91;;;2.95;100.00
57644;BME280;43474;46.510;6.686;2024-01-30T07:52:44;98022.63;;;3.36;100.00
57644;BME280;43474;46.510;6.686;2024-01-30T07:55:10;98052.81;;;3.84;100.00
57644;BME280;43474;46.510;6.686;2024-01-30T07:57:38;98019.09;;;3.71;100.00
57644;BME280;43474;46.510;6.686;2024-01-30T08:00:04;98016.06;;;4.10;100.00
57644;BME280;43474;46.510;6.686;2024-01-30T08:02:32;98010.69;;;4.54;100.00
57644;BME280;43474;46.510;6.686;2024-01-30T08:04:58;98034.44;;;5.11;100.00
57644;BME280;43474;46.510;6.686;2024-01-30T08:07:24;98021.19;;;5.29;100.00
57644;BME280;43474;46.510;6.686;2024-01-30T08:09:50;98020.84;;;5.64;100.00
57644;BME280;43474;46.510;6.686;2024-01-30T08:12:16;98015.91;;;6.02;100.00
57644;BME280;43474;46.510;6.686;2024-01-30T08:14:42;98062.59;;;6.08;100.00
57644;BME280;43474;46.510;6.686;2024-01-30T08:17:08;98034.97;;;6.04;100.00
57644;BME280;43474;46.510;6.686;2024-01-30T08:19:34;98065.38;;;6.23;100.00
57644;BME280;43474;46.510;6.686;2024-01-30T08:21:59;98011.91;;;6.22;100.00
57644;BME280;43474;46.510;6.686;2024-01-30T08:24:25;98038.56;;;6.59;100.00
57644;BME280;43474;46.510;6.686;2024-01-30T08:26:51;98030.97;;;6.64;100.00
57644;BME280;43474;46.510;6.686;2024-01-30T08:29:17;98015.47;;;6.38;100.00
57644;BME280;43474;46.510;6.686;2024-01-30T08:31:42;98032.22;;;6.45;100.00
57644;BME280;43474;46.510;6.686;2024-01-30T08:34:09;98027.03;;;6.20;100.00
57644;BME280;43474;46.510;6.686;2024-01-30T08:36:36;98009.59;;;6.19;100.00
57644;BME280;43474;46.510;6.686;2024-01-30T08:39:01;98024.06;;;6.24;100.00
57644;BME280;43474;46.510;6.686;2024-01-30T08:41:27;98040.78;;;6.47;100.00
57644;BME280;43474;46.510;6.686;2024-01-30T08:43:53;98012.03;;;6.68;100.00
57644;BME280;43474;46.510;6.686;2024-01-30T08:46:20;98023.47;;;6.84;100.00
57644;BME280;43474;46.510;6.686;2024-01-30T08:48:46;98042.38;;;7.18;100.00
57644;BME280;43474;46.510;6.686;2024-01-30T08:51:13;98011.81;;;6.78;100.00
57644;BME280;43474;46.510;6.686;2024-01-30T08:53:40;97999.69;;;6.61;100.00
57644;BME280;43474;46.510;6.686;2024-01-30T08:56:07;98018.09;;;6.77;100.00
57644;BME280;43474;46.510;6.686;2024-01-30T08:58:32;98000.59;;;6.53;100.00
57644;BME280;43474;46.510;6.686;2024-01-30T09:00:58;98022.75;;;6.67;100.00
57644;BME280;43474;46.510;6.686;2024-01-30T09:03:24;98055.16;;;7.53;100.00
57644;BME280;43474;46.510;6.686;2024-01-30T09:05:50;98061.16;;;7.84;100.00
57644;BME280;43474;46.510;6.686;2024-01-30T09:08:16;98043.09;;;7.58;100.00
57644;BME280;43474;46.510;6.686;2024-01-30T09:10:42;98049.00;;;7.60;100.00
57644;BME280;43474;46.510;6.686;2024-01-30T09:13:08;98022.56;;;7.83;100.00
57644;BME280;43474;46.510;6.686;2024-01-30T09:15:34;98057.13;;;8.11;100.00
57644;BME280;43474;46.510;6.686;2024-01-30T09:18:00;98040.66;;;8.24;100.00
57644;BME280;43474;46.510;6.686;2024-01-30T09:20:26;98060.38;;;8.51;100.00
57644;BME280;43474;46.510;6.686;2024-01-30T09:22:52;98033.97;;;8.36;100.00
57644;BME280;43474;46.510;6.686;2024-01-30T09:25:18;98019.34;;;8.40;100.00
57644;BME280;43474;46.510;6.686;2024-01-30T09:27:44;98059.81;;;8.70;100.00
57644;BME280;43474;46.510;6.686;2024-01-30T09:30:10;98020.59;;;8.29;100.00
57644;BME280;43474;46.510;6.686;2024-01-30T09:32:35;98062.25;;;8.27;100.00
57644;BME280;43474;46.510;6.686;2024-01-30T09:35:01;98033.00;;;8.14;100.00
57644;BME280;43474;46.510;6.686;2024-01-30T09:37:27;98077.31;;;8.71;100.00
57644;BME280;43474;46.510;6.686;2024-01-30T09:39:53;98051.53;;;8.95;100.00
57644;BME280;43474;46.510;6.686;2024-01-30T09:42:33;98012.09;;;8.93;100.00
57644;BME280;43474;46.510;6.686;2024-01-30T09:45:02;98045.56;;;9.44;100.00
57644;BME280;43474;46.510;6.686;2024-01-30T09:47:31;98025.28;;;9.29;100.00
57644;BME280;43474;46.510;6.686;2024-01-30T09:49:58;98061.31;;;9.95;100.00
57644;BME280;43474;46.510;6.686;2024-01-30T09:52:24;98047.28;;;10.29;100.00
57644;BME280;43474;46.510;6.686;2024-01-30T09:54:51;98051.19;;;9.55;100.00
57644;BME280;43474;46.510;6.686;2024-01-30T09:57:17;98016.25;;;9.24;100.00
57644;BME280;43474;46.510;6.686;2024-01-30T09:59:43;98045.28;;;9.81;100.00
57644;BME280;43474;46.510;6.686;2024-01-30T10:02:09;98074.22;;;10.04;100.00
57644;BME280;43474;46.510;6.686;2024-01-30T10:04:35;98065.31;;;10.40;100.00
57644;BME280;43474;46.510;6.686;2024-01-30T10:07:04;98023.72;;;10.13;100.00
57644;BME280;43474;46.510;6.686;2024-01-30T10:09:33;98052.34;;;10.58;100.00
57644;BME280;43474;46.510;6.686;2024-01-30T10:11:59;98022.94;;;10.19;100.00
57644;BME280;43474;46.510;6.686;2024-01-30T10:14:26;98033.16;;;9.94;100.00
57644;BME280;43474;46.510;6.686;2024-01-30T10:16:52;98061.00;;;10.11;100.00
57644;BME280;43474;46.510;6.686;2024-01-30T10:19:18;98086.00;;;10.58;100.00
57644;BME280;43474;46.510;6.686;2024-01-30T10:21:46;98092.88;;;10.46;100.00
57644;BME280;43474;46.510;6.686;2024-01-30T10:24:12;98030.13;;;9.97;100.00
57644;BME280;43474;46.510;6.686;2024-01-30T10:26:40;98078.41;;;10.20;100.00
57644;BME280;43474;46.510;6.686;2024-01-30T10:29:09;98052.69;;;10.42;100.00
57644;BME280;43474;46.510;6.686;2024-01-30T10:31:35;98043.72;;;10.43;100.00
57644;BME280;43474;46.510;6.686;2024-01-30T10:34:01;98000.91;;;10.40;100.00
57644;BME280;43474;46.510;6.686;2024-01-30T10:36:30;98014.38;;;10.45;100.00
57644;BME280;43474;46.510;6.686;2024-01-30T10:39:01;98047.53;;;10.34;100.00
57644;BME280;43474;46.510;6.686;2024-01-30T10:41:27;98060.31;;;10.02;100.00
57644;BME280;43474;46.510;6.686;2024-01-30T10:44:08;98008.47;;;10.15;100.00
57644;BME280;43474;46.510;6.686;2024-01-30T10:46:35;98022.47;;;10.37;100.00
57644;BME280;43474;46.510;6.686;2024-01-30T10:49:01;98072.38;;;10.68;100.00
57644;BME280;43474;46.510;6.686;2024-01-30T10:51:28;98048.00;;;10.85;100.00
57644;BME280;43474;46.510;6.686;2024-01-30T10:53:58;98053.13;;;10.52;100.00
57644;BME280;43474;46.510;6.686;2024-01-30T10:56:26;98041.78;;;10.65;100.00
57644;BME280;43474;46.510;6.686;2024-01-30T10:58:54;98015.94;;;10.32;100.00
57644;BME280;43474;46.510;6.686;2024-01-30T11:01:22;98018.03;;;10.98;100.00
57644;BME280;43474;46.510;6.686;2024-01-30T11:03:52;98023.22;;;11.33;100.00
57644;BME280;43474;46.510;6.686;2024-01-30T11:06:18;98000.22;;;10.79;100.00
57644;BME280;43474;46.510;6.686;2024-01-30T11:09:01;98046.81;;;10.95;100.00
57644;BME280;43474;46.510;6.686;2024-01-30T11:11:29;98060.75;;;11.10;100.00
57644;BME280;43474;46.510;6.686;2024-01-30T11:13:55;97990.19;;;10.61;100.00
57644;BME280;43474;46.510;6.686;2024-01-30T11:16:20;98029.50;;;10.57;100.00
57644;BME280;43474;46.510;6.686;2024-01-30T11:18:50;98027.75;;;10.71;100.00
57644;BME280;43474;46.510;6.686;2024-01-30T11:21:17;98021.56;;;10.64;100.00
57644;BME280;43474;46.510;6.686;2024-01-30T11:23:43;98025.69;;;10.67;100.00
57644;BME280;43474;46.510;6.686;2024-01-30T11:26:12;97969.59;;;9.94;100.00
57644;BME280;43474;46.510;6.686;2024-01-30T11:28:38;98038.22;;;10.17;100.00
57644;BME280;43474;46.510;6.686;2024-01-30T11:31:05;98006.78;;;9.79;100.00
57644;BME280;43474;46.510;6.686;2024-01-30T11:33:33;97980.38;;;9.64;100.00
57644;BME280;43474;46.510;6.686;2024-01-30T11:36:00;97994.88;;;9.40;100.00
57644;BME280;43474;46.510;6.686;2024-01-30T11:38:27;98006.44;;;9.18;100.00
57644;BME280;43474;46.510;6.686;2024-01-30T11:40:55;98004.88;;;9.45;100.00
57644;BME280;43474;46.510;6.686;2024-01-30T11:43:22;98025.09;;;9.52;100.00
57644;BME280;43474;46.510;6.686;2024-01-30T11:45:48;97976.78;;;9.72;100.00
57644;BME280;43474;46.510;6.686;2024-01-30T11:48:14;97981.16;;;9.58;100.00
57644;BME280;43474;46.510;6.686;2024-01-30T11:50:40;97983.72;;;9.23;100.00
57644;BME280;43474;46.510;6.686;2024-01-30T11:53:10;98053.84;;;9.83;100.00
57644;BME280;43474;46.510;6.686;2024-01-30T11:55:36;98043.53;;;9.67;100.00
57644;BME280;43474;46.510;6.686;2024-01-30T11:58:03;98039.34;;;9.51;100.00
57644;BME280;43474;46.510;6.686;2024-01-30T12:00:32;98017.59;;;9.13;100.00
57644;BME280;43474;46.510;6.686;2024-01-30T12:02:59;97981.63;;;8.97;100.00
57644;BME280;43474;46.510;6.686;2024-01-30T12:05:26;98016.72;;;9.27;100.00
57644;BME280;43474;46.510;6.686;2024-01-30T12:07:53;98002.94;;;9.32;100.00
57644;BME280;43474;46.510;6.686;2024-01-30T12:10:18;97981.56;;;9.33;100.00
57644;BME280;43474;46.510;6.686;2024-01-30T12:12:49;97985.34;;;9.74;100.00
57644;BME280;43474;46.510;6.686;2024-01-30T12:15:15;97962.34;;;9.46;100.00
57644;BME280;43474;46.510;6.686;2024-01-30T12:17:42;97992.34;;;9.81;100.00
57644;BME280;43474;46.510;6.686;2024-01-30T12:20:17;97955.06;;;9.83;100.00
57644;BME280;43474;46.510;6.686;2024-01-30T12:22:44;98006.34;;;10.03;100.00
57644;BME280;43474;46.510;6.686;2024-01-30T12:25:12;97948.53;;;9.51;100.00
57644;BME280;43474;46.510;6.686;2024-01-30T12:27:39;98009.72;;;9.91;100.00
57644;BME280;43474;46.510;6.686;2024-01-30T12:30:09;97980.16;;;9.59;100.00
57644;BME280;43474;46.510;6.686;2024-01-30T12:32:43;97970.28;;;9.46;100.00
57644;BME280;43474;46.510;6.686;2024-01-30T12:35:13;97971.06;;;9.68;100.00
57644;BME280;43474;46.510;6.686;2024-01-30T12:37:40;97967.03;;;9.72;100.00
57644;BME280;43474;46.510;6.686;2024-01-30T12:40:10;98005.22;;;9.84;100.00
57644;BME280;43474;46.510;6.686;2024-01-30T12:42:37;97955.06;;;9.83;100.00
57644;BME280;43474;46.510;6.686;2024-01-30T12:45:06;97957.81;;;9.96;100.00
57644;BME280;43474;46.510;6.686;2024-01-30T12:47:33;97965.56;;;10.26;100.00
57644;BME280;43474;46.510;6.686;2024-01-30T12:49:59;97937.88;;;10.35;100.00
57644;BME280;43474;46.510;6.686;2024-01-30T12:52:25;97983.72;;;10.77;100.00
57644;BME280;43474;46.510;6.686;2024-01-30T12:54:52;97973.38;;;11.02;100.00
57644;BME280;43474;46.510;6.686;2024-01-30T12:57:18;97930.13;;;11.21;100.00